Time;durP1;ratioP1;P1;durP2;ratioP2;P2;SDS_P1;SDS_P2;PMS_P1;PMS_P2;Temp;Humidity;BMP_temperature;BMP_pressure;BME280_temperature;BME280_humidity;BME280_pressure;Samples;Min_cycle;Max_cycle;Signal;HPM_P1;HPM_P2
2023/10/23 00:00:28;;;;;;;3.50;1.60;;;;;;;9.21;97.88;96537.73;108240;1278;22691;-77
2023/10/23 00:03:18;;;;;;;2.70;2.00;;;;;;;9.17;97.92;96539.23;108235;1278;22532;-77
2023/10/23 00:05:49;;;;;;;2.60;1.50;;;;;;;9.13;98.00;96538.55;108291;1278;22528;-77
2023/10/23 00:08:20;;;;;;;2.50;1.20;;;;;;;9.11;98.20;96540.77;108214;1278;30859;-77
2023/10/23 00:10:51;;;;;;;3.30;1.70;;;;;;;9.09;98.33;96548.61;108268;1278;22529;-77
2023/10/23 00:13:22;;;;;;;2.90;1.20;;;;;;;9.08;98.45;96545.98;108275;1278;22547;-77
2023/10/23 00:15:53;;;;;;;7.00;2.30;;;;;;;9.10;98.52;96546.81;108291;1278;22523;-77
2023/10/23 00:18:25;;;;;;;2.40;1.50;;;;;;;9.08;98.54;96552.16;108239;1278;22528;-77
2023/10/23 00:21:03;;;;;;;1.80;1.20;;;;;;;9.12;98.74;96553.58;108339;1278;22578;-77
2023/10/23 00:23:34;;;;;;;5.10;2.00;;;;;;;9.10;98.60;96548.23;108247;1278;22529;-77
2023/10/23 00:26:05;;;;;;;1.90;1.40;;;;;;;9.09;98.58;96547.71;108285;1278;22533;-77
2023/10/23 00:28:36;;;;;;;7.30;2.10;;;;;;;9.10;98.72;96548.66;108235;1278;27826;-77
2023/10/23 00:31:07;;;;;;;3.20;1.60;;;;;;;9.08;98.66;96547.24;108255;1278;22572;-77
2023/10/23 00:33:38;;;;;;;2.60;1.50;;;;;;;9.07;98.59;96544.12;108251;1277;22525;-77
2023/10/23 00:36:11;;;;;;;4.60;1.90;;;;;;;9.05;98.55;96545.52;108319;1278;22520;-78
2023/10/23 00:38:42;;;;;;;2.70;1.20;;;;;;;9.07;98.68;96548.09;108278;1271;22546;-77
2023/10/23 00:41:13;;;;;;;3.20;1.40;;;;;;;9.07;98.62;96548.36;108308;1278;22531;-77
2023/10/23 00:43:44;;;;;;;2.70;1.40;;;;;;;9.06;98.59;96551.85;108279;1276;22528;-77
2023/10/23 00:46:20;;;;;;;2.40;1.60;;;;;;;9.07;98.72;96553.27;108287;1278;25807;-77
2023/10/23 00:48:52;;;;;;;6.10;1.60;;;;;;;9.11;98.78;96556.38;108274;1278;22577;-77
2023/10/23 00:51:24;;;;;;;4.60;1.50;;;;;;;9.09;98.55;96560.09;108275;1278;22699;-77
2023/10/23 00:53:56;;;;;;;2.40;1.20;;;;;;;9.04;98.31;96559.27;108270;1278;22534;-77
2023/10/23 00:56:28;;;;;;;3.50;1.40;;;;;;;8.98;98.24;96560.02;108272;1278;22512;-77
2023/10/23 00:59:05;;;;;;;3.70;1.80;;;;;;;9.00;98.75;96563.07;108216;1278;45479;-77
2023/10/23 01:01:36;;;;;;;2.70;1.70;;;;;;;9.02;98.86;96564.78;108269;1278;22565;-77
2023/10/23 01:04:08;;;;;;;4.20;1.50;;;;;;;9.03;98.78;96565.46;108325;1276;22622;-77
2023/10/23 01:06:41;;;;;;;4.00;1.70;;;;;;;9.02;98.89;96568.26;108263;1278;24245;-77
2023/10/23 01:09:15;;;;;;;3.70;1.50;;;;;;;9.03;98.96;96565.41;108261;1278;22529;-77
2023/10/23 01:11:46;;;;;;;3.50;1.60;;;;;;;9.03;99.02;96570.49;108287;1278;22583;-77
2023/10/23 01:14:17;;;;;;;3.30;1.50;;;;;;;9.02;99.03;96567.84;108298;1278;25175;-78
2023/10/23 01:16:47;;;;;;;2.60;1.50;;;;;;;9.01;99.11;96568.84;108279;1278;25377;-77
2023/10/23 01:19:18;;;;;;;4.70;1.60;;;;;;;9.01;99.12;96570.31;108159;1278;33940;-77
2023/10/23 01:21:49;;;;;;;2.10;1.40;;;;;;;9.00;99.18;96574.96;108271;1278;22528;-77
2023/10/23 01:24:22;;;;;;;3.80;1.50;;;;;;;9.02;99.40;96572.61;108276;1278;27511;-78
2023/10/23 01:26:54;;;;;;;4.50;1.80;;;;;;;9.03;99.52;96570.91;108297;1278;22520;-77
2023/10/23 01:29:27;;;;;;;2.50;1.60;;;;;;;9.04;99.31;96578.10;108273;1278;22812;-77
2023/10/23 01:32:00;;;;;;;4.30;1.90;;;;;;;8.98;99.18;96576.83;108308;1270;22523;-77
2023/10/23 01:34:31;;;;;;;5.20;2.00;;;;;;;8.96;99.49;96578.38;108335;1278;24342;-78
2023/10/23 01:37:05;;;;;;;2.70;1.80;;;;;;;9.01;99.79;96582.07;108237;1278;22527;-77
2023/10/23 01:39:35;;;;;;;4.40;2.10;;;;;;;8.99;99.55;96582.38;108242;1277;24300;-77
2023/10/23 01:42:07;;;;;;;4.30;1.90;;;;;;;8.93;99.24;96578.33;108261;1274;24496;-77
2023/10/23 01:44:39;;;;;;;4.10;1.40;;;;;;;8.86;99.21;96582.46;108375;1278;24221;-77
2023/10/23 01:47:09;;;;;;;4.20;1.70;;;;;;;8.83;99.26;96585.48;108286;1267;25236;-77
2023/10/23 01:49:40;;;;;;;4.60;2.10;;;;;;;8.83;99.59;96585.00;108277;1278;24262;-78
2023/10/23 01:52:11;;;;;;;2.90;1.50;;;;;;;8.85;99.83;96586.21;108302;1258;25433;-77
2023/10/23 01:54:43;;;;;;;5.90;2.10;;;;;;;8.87;99.87;96582.48;108241;1278;22526;-78
2023/10/23 01:57:14;;;;;;;4.40;1.60;;;;;;;8.90;99.98;96584.42;108219;1278;25344;-78
2023/10/23 01:59:45;;;;;;;2.70;1.90;;;;;;;8.96;100.00;96588.67;108174;1278;22649;-78
2023/10/23 02:02:16;;;;;;;2.30;1.60;;;;;;;8.96;100.00;96584.19;108308;1278;22641;-78
2023/10/23 02:04:47;;;;;;;3.30;1.60;;;;;;;8.98;100.00;96589.41;108284;1278;22951;-77
2023/10/23 02:07:17;;;;;;;2.90;1.60;;;;;;;8.99;99.98;96590.67;108257;1278;22698;-78
2023/10/23 02:09:48;;;;;;;2.20;1.40;;;;;;;8.98;100.00;96590.20;108230;1278;25405;-77
2023/10/23 02:12:19;;;;;;;3.60;1.80;;;;;;;8.97;99.99;96588.58;108240;1278;22944;-78
2023/10/23 02:14:50;;;;;;;3.50;2.00;;;;;;;8.94;99.91;96585.89;108280;1278;22543;-77
2023/10/23 02:17:21;;;;;;;2.00;1.40;;;;;;;8.91;99.79;96586.64;108242;1278;22528;-77
2023/10/23 02:19:53;;;;;;;2.80;1.80;;;;;;;8.88;99.72;96586.27;108227;1278;22548;-77
2023/10/23 02:22:23;;;;;;;2.10;1.50;;;;;;;8.88;100.00;96588.13;108257;1278;24478;-77
2023/10/23 02:24:54;;;;;;;2.90;1.70;;;;;;;8.85;99.79;96594.45;108254;1278;22520;-77
2023/10/23 02:27:30;;;;;;;5.70;1.90;;;;;;;8.82;99.84;96593.88;108251;1278;22674;-77
2023/10/23 02:30:01;;;;;;;4.60;1.70;;;;;;;8.80;99.88;96598.44;108259;1277;22531;-77
2023/10/23 02:32:33;;;;;;;2.30;1.50;;;;;;;8.81;99.96;96595.95;108261;1278;22544;-77
2023/10/23 02:35:04;;;;;;;2.40;1.70;;;;;;;8.86;100.00;96595.63;108281;1278;24277;-77
2023/10/23 02:37:35;;;;;;;5.30;1.90;;;;;;;8.89;100.00;96598.01;108257;1278;22521;-77
2023/10/23 02:40:08;;;;;;;4.10;2.40;;;;;;;8.90;99.97;96599.65;108322;1278;22677;-77
2023/10/23 02:42:38;;;;;;;3.90;1.50;;;;;;;8.86;99.98;96600.11;108332;1279;22560;-77
2023/10/23 02:45:11;;;;;;;3.10;1.40;;;;;;;8.91;100.00;96598.11;108299;1278;22555;-77
2023/10/23 02:47:41;;;;;;;4.20;1.70;;;;;;;8.93;100.00;96599.85;108250;1278;22535;-77
2023/10/23 02:50:13;;;;;;;4.40;1.90;;;;;;;8.93;100.00;96600.60;108248;1278;22520;-78
2023/10/23 02:52:45;;;;;;;4.90;1.90;;;;;;;8.93;100.00;96603.92;108220;1270;22529;-78
2023/10/23 02:55:16;;;;;;;2.80;1.60;;;;;;;8.92;100.00;96606.09;108252;1278;22535;-77
2023/10/23 02:57:46;;;;;;;2.60;1.50;;;;;;;8.87;99.92;96606.00;108195;1278;22527;-77
2023/10/23 03:00:18;;;;;;;2.80;1.70;;;;;;;8.84;99.98;96611.17;108278;1270;22526;-77
2023/10/23 03:02:49;;;;;;;2.40;1.70;;;;;;;8.79;99.87;96611.02;108299;1278;24375;-77
2023/10/23 03:05:20;;;;;;;3.10;1.60;;;;;;;8.74;99.83;96609.66;108321;1278;22559;-77
2023/10/23 03:07:51;;;;;;;3.10;1.50;;;;;;;8.71;99.87;96610.27;108269;1278;23213;-77
2023/10/23 03:10:22;;;;;;;3.70;2.00;;;;;;;8.64;99.70;96611.41;108292;1278;22537;-77
2023/10/23 03:12:54;;;;;;;3.50;1.50;;;;;;;8.56;99.73;96610.45;108318;1278;22523;-77
2023/10/23 03:15:40;;;;;;;3.10;1.50;;;;;;;8.52;99.96;96607.71;108257;1278;22520;-77
2023/10/23 03:18:11;;;;;;;3.50;1.70;;;;;;;8.44;99.76;96610.73;108231;1278;22626;-77
2023/10/23 03:20:42;;;;;;;5.00;1.60;;;;;;;8.36;99.86;96608.34;108223;1278;22536;-77
2023/10/23 03:23:12;;;;;;;3.90;1.70;;;;;;;8.29;99.97;96606.13;108236;1278;22528;-77
2023/10/23 03:25:46;;;;;;;2.60;1.60;;;;;;;8.27;100.00;96609.98;108281;1275;22567;-77
2023/10/23 03:28:16;;;;;;;3.10;1.60;;;;;;;8.31;100.00;96615.71;108267;1277;25411;-78
2023/10/23 03:30:47;;;;;;;3.50;1.50;;;;;;;8.20;99.97;96618.02;108216;1277;22553;-77
2023/10/23 03:33:18;;;;;;;3.50;2.00;;;;;;;8.04;99.92;96620.63;108257;1277;25353;-77
2023/10/23 03:35:50;;;;;;;6.10;1.50;;;;;;;8.00;100.00;96613.70;108251;1270;24273;-78
2023/10/23 03:38:21;;;;;;;1.70;1.30;;;;;;;8.03;100.00;96621.95;108225;1276;23396;-77
2023/10/23 03:41:02;;;;;;;3.10;1.60;;;;;;;8.04;100.00;96617.73;108320;1278;25563;-77
2023/10/23 03:43:35;;;;;;;2.10;1.60;;;;;;;8.07;100.00;96609.45;108285;1278;22560;-77
2023/10/23 03:46:06;;;;;;;2.70;1.50;;;;;;;8.09;100.00;96608.28;108290;1278;22524;-78
2023/10/23 03:48:37;;;;;;;2.80;1.60;;;;;;;8.09;100.00;96602.20;108227;1278;22531;-77
2023/10/23 03:51:08;;;;;;;1.80;1.20;;;;;;;8.07;100.00;96603.70;108282;1277;22521;-78
2023/10/23 03:53:39;;;;;;;2.80;1.50;;;;;;;7.97;100.00;96603.04;108258;1278;22543;-77
2023/10/23 03:56:12;;;;;;;2.80;1.50;;;;;;;7.91;100.00;96606.41;108292;1276;23295;-77
2023/10/23 03:58:43;;;;;;;2.30;1.30;;;;;;;7.92;100.00;96603.41;108221;1277;22530;-77
2023/10/23 04:01:14;;;;;;;5.40;1.80;;;;;;;7.94;100.00;96600.02;108244;1278;22559;-77
2023/10/23 04:03:45;;;;;;;2.50;1.40;;;;;;;7.98;100.00;96599.86;108253;1278;22553;-77
2023/10/23 04:06:16;;;;;;;2.10;1.30;;;;;;;7.92;100.00;96603.93;108262;1278;25377;-77
2023/10/23 04:08:47;;;;;;;5.60;2.10;;;;;;;7.92;100.00;96603.20;108231;1268;22665;-78
2023/10/23 04:11:18;;;;;;;3.30;1.80;;;;;;;7.96;100.00;96601.71;108215;1271;23881;-78
2023/10/23 04:13:49;;;;;;;2.80;1.50;;;;;;;8.00;100.00;96604.45;108247;1278;22540;-77
2023/10/23 04:16:20;;;;;;;2.80;1.50;;;;;;;8.05;100.00;96604.90;108278;1275;24221;-78
2023/10/23 04:18:50;;;;;;;3.20;1.30;;;;;;;8.09;100.00;96604.27;108208;1278;27469;-78
2023/10/23 04:21:23;;;;;;;4.10;1.90;;;;;;;8.17;100.00;96607.83;108285;1278;22528;-78
2023/10/23 04:23:53;;;;;;;2.00;1.60;;;;;;;8.25;100.00;96608.14;108318;1272;22538;-77
2023/10/23 04:26:27;;;;;;;4.20;1.60;;;;;;;8.33;100.00;96605.74;108255;1278;22646;-77
2023/10/23 04:29:00;;;;;;;1.90;1.50;;;;;;;8.38;100.00;96605.91;108291;1270;22545;-78
2023/10/23 04:31:31;;;;;;;3.80;1.50;;;;;;;8.45;100.00;96604.70;108312;1278;22663;-78
2023/10/23 04:34:02;;;;;;;3.00;1.30;;;;;;;8.52;100.00;96604.76;108269;1278;22535;-78
2023/10/23 04:36:32;;;;;;;2.30;1.30;;;;;;;8.56;100.00;96603.84;108308;1278;22553;-78
2023/10/23 04:39:03;;;;;;;5.20;1.40;;;;;;;8.58;100.00;96600.88;108284;1277;25659;-78
2023/10/23 04:41:34;;;;;;;2.90;1.30;;;;;;;8.59;100.00;96599.95;108296;1278;22532;-78
2023/10/23 04:44:06;;;;;;;2.00;1.40;;;;;;;8.60;100.00;96604.40;108274;1270;22588;-78
2023/10/23 04:46:36;;;;;;;3.40;1.60;;;;;;;8.61;100.00;96609.67;108255;1278;25080;-78
2023/10/23 04:49:07;;;;;;;3.40;1.30;;;;;;;8.63;100.00;96614.90;108275;1278;24292;-78
2023/10/23 04:51:38;;;;;;;1.70;1.30;;;;;;;8.67;100.00;96616.22;108311;1278;23257;-78
2023/10/23 04:54:09;;;;;;;4.50;1.60;;;;;;;8.69;100.00;96619.02;108260;1278;27472;-78
2023/10/23 04:56:42;;;;;;;1.90;1.30;;;;;;;8.69;100.00;96626.72;108266;1278;24261;-78
2023/10/23 04:59:13;;;;;;;2.30;1.30;;;;;;;8.69;100.00;96629.31;108292;1277;23459;-78
2023/10/23 05:01:44;;;;;;;3.70;1.50;;;;;;;8.70;100.00;96635.39;108269;1278;22524;-78
2023/10/23 05:04:15;;;;;;;4.30;1.30;;;;;;;8.73;100.00;96636.84;108273;1275;22531;-77
2023/10/23 05:06:46;;;;;;;3.20;1.20;;;;;;;8.74;100.00;96642.81;108299;1277;23893;-78
2023/10/23 05:09:17;;;;;;;4.20;1.50;;;;;;;8.77;100.00;96650.20;108268;1278;25393;-78
2023/10/23 05:11:48;;;;;;;2.40;1.10;;;;;;;8.80;100.00;96654.64;108286;1278;23743;-78
2023/10/23 05:14:19;;;;;;;2.20;1.50;;;;;;;8.85;100.00;96654.30;108279;1278;22526;-78
2023/10/23 05:16:49;;;;;;;3.20;1.50;;;;;;;8.83;100.00;96656.64;108317;1278;22969;-78
2023/10/23 05:19:21;;;;;;;3.20;1.40;;;;;;;8.84;100.00;96664.63;108246;1278;22555;-78
2023/10/23 05:21:52;;;;;;;6.90;1.50;;;;;;;8.82;100.00;96667.74;108246;1278;24475;-78
2023/10/23 05:24:23;;;;;;;2.00;1.30;;;;;;;8.77;100.00;96662.46;108261;1276;24503;-78
2023/10/23 05:26:59;;;;;;;3.30;1.50;;;;;;;8.78;100.00;96669.12;108264;1277;22575;-78
2023/10/23 05:29:32;;;;;;;3.10;1.70;;;;;;;8.76;100.00;96675.11;108248;1274;38009;-78
2023/10/23 05:32:03;;;;;;;2.90;1.60;;;;;;;8.75;100.00;96678.13;108324;1271;25262;-78
2023/10/23 05:34:34;;;;;;;5.30;2.30;;;;;;;8.73;100.00;96685.36;108272;1278;22986;-78
2023/10/23 05:37:05;;;;;;;4.80;1.80;;;;;;;8.74;100.00;96689.06;108273;1278;22557;-78
2023/10/23 05:39:36;;;;;;;3.70;1.40;;;;;;;8.76;100.00;96688.73;108241;1277;27158;-78
2023/10/23 05:42:09;;;;;;;4.40;1.90;;;;;;;8.78;100.00;96686.10;108273;1278;22526;-78
2023/10/23 05:44:40;;;;;;;3.20;1.60;;;;;;;8.79;100.00;96693.17;108300;1278;22523;-78
2023/10/23 05:47:11;;;;;;;4.90;1.60;;;;;;;8.76;100.00;96692.87;108271;1278;22540;-78
2023/10/23 05:49:41;;;;;;;2.80;1.30;;;;;;;8.74;100.00;96698.15;108278;1278;22532;-78
2023/10/23 05:52:12;;;;;;;3.10;1.40;;;;;;;8.80;100.00;96698.84;108300;1278;22542;-78
2023/10/23 05:54:44;;;;;;;3.50;1.50;;;;;;;8.85;100.00;96698.88;108307;1278;22534;-78
2023/10/23 05:57:15;;;;;;;3.40;1.70;;;;;;;8.90;100.00;96705.30;108278;1278;22531;-78
2023/10/23 05:59:46;;;;;;;1.90;1.20;;;;;;;8.97;100.00;96705.39;108244;1273;22554;-78
2023/10/23 06:02:17;;;;;;;7.30;1.80;;;;;;;9.06;100.00;96709.36;108245;1270;25345;-78
2023/10/23 06:04:50;;;;;;;4.90;1.70;;;;;;;9.12;100.00;96708.39;108305;1278;22523;-78
2023/10/23 06:07:21;;;;;;;3.70;1.50;;;;;;;9.16;100.00;96715.44;108284;1278;23445;-78
2023/10/23 06:09:52;;;;;;;3.10;1.60;;;;;;;9.22;100.00;96714.68;108271;1278;25145;-78
2023/10/23 06:12:25;;;;;;;6.50;2.50;;;;;;;9.34;100.00;96716.20;108238;1278;22557;-78
2023/10/23 06:14:58;;;;;;;3.60;1.80;;;;;;;9.52;100.00;96717.80;108266;1278;22568;-78
2023/10/23 06:17:33;;;;;;;2.90;1.60;;;;;;;9.66;100.00;96725.81;108356;1268;22531;-78
2023/10/23 06:20:04;;;;;;;2.30;1.20;;;;;;;9.74;100.00;96725.81;108302;1278;22537;-78
2023/10/23 06:22:35;;;;;;;4.30;1.50;;;;;;;9.78;100.00;96730.34;108319;1278;24289;-78
2023/10/23 06:25:07;;;;;;;1.20;0.90;;;;;;;9.79;100.00;96734.83;108263;1278;22588;-78
2023/10/23 06:27:38;;;;;;;2.70;1.50;;;;;;;9.76;100.00;96730.25;108312;1278;22532;-77
2023/10/23 06:30:11;;;;;;;2.70;1.40;;;;;;;9.73;100.00;96729.58;108311;1278;22530;-78
2023/10/23 06:32:42;;;;;;;2.30;1.10;;;;;;;9.70;100.00;96727.13;108283;1278;22544;-78
2023/10/23 06:35:13;;;;;;;2.70;1.20;;;;;;;9.66;100.00;96726.61;108306;1270;22552;-78
2023/10/23 06:37:44;;;;;;;2.80;1.30;;;;;;;9.71;100.00;96728.88;108288;1278;23408;-78
2023/10/23 06:40:15;;;;;;;3.20;1.20;;;;;;;9.79;100.00;96730.02;108278;1278;22524;-78
2023/10/23 06:42:46;;;;;;;2.70;1.10;;;;;;;9.93;100.00;96724.58;108292;1278;22524;-78
2023/10/23 06:45:17;;;;;;;2.30;1.00;;;;;;;10.24;100.00;96723.07;108278;1278;24826;-78
2023/10/23 06:47:51;;;;;;;2.50;1.10;;;;;;;10.59;100.00;96719.45;108229;1277;23494;-78
2023/10/23 06:50:22;;;;;;;1.90;1.20;;;;;;;10.72;99.91;96717.93;108293;1277;22546;-78
2023/10/23 06:52:53;;;;;;;3.50;1.00;;;;;;;10.75;99.55;96723.16;108316;1277;22641;-78
2023/10/23 06:55:27;;;;;;;2.70;1.10;;;;;;;10.86;99.45;96721.12;108280;1277;22576;-78
2023/10/23 06:57:59;;;;;;;2.00;0.80;;;;;;;10.88;99.04;96724.13;108299;1277;22532;-78
2023/10/23 07:00:30;;;;;;;2.30;0.90;;;;;;;10.88;98.52;96729.80;108292;1261;22532;-78
2023/10/23 07:03:04;;;;;;;2.70;1.20;;;;;;;11.27;98.30;96733.81;108315;1271;22550;-78
2023/10/23 07:05:35;;;;;;;2.20;1.00;;;;;;;12.26;98.13;96733.52;108289;1277;22528;-78
2023/10/23 07:08:07;;;;;;;2.90;1.20;;;;;;;13.25;96.76;96730.16;108238;1278;25357;-78
2023/10/23 07:10:39;;;;;;;4.50;1.40;;;;;;;14.24;95.03;96723.55;108328;1277;22527;-78
2023/10/23 07:13:12;;;;;;;1.70;0.90;;;;;;;15.16;93.21;96711.93;108314;1277;25420;-78
2023/10/23 07:15:43;;;;;;;2.60;1.10;;;;;;;16.20;91.55;96713.88;108310;1277;22592;-78
2023/10/23 07:18:14;;;;;;;3.20;1.10;;;;;;;16.47;88.59;96719.20;108253;1277;25722;-78
2023/10/23 07:20:54;;;;;;;2.10;1.10;;;;;;;16.78;86.82;96720.73;108339;1278;22628;-79
2023/10/23 07:23:28;;;;;;;2.60;1.30;;;;;;;17.45;85.88;96719.72;108277;1273;22565;-79
2023/10/23 07:26:12;;;;;;;2.40;1.30;;;;;;;17.84;83.60;96717.83;108258;1270;22517;-78
2023/10/23 07:28:43;;;;;;;2.90;1.00;;;;;;;18.16;82.31;96718.96;108267;1278;24261;-78
2023/10/23 07:31:15;;;;;;;5.20;1.20;;;;;;;18.50;81.47;96723.63;108278;1278;25406;-78
2023/10/23 07:33:46;;;;;;;1.00;0.90;;;;;;;18.57;79.64;96719.66;108262;1271;22525;-78
2023/10/23 07:36:18;;;;;;;3.00;1.30;;;;;;;18.47;77.90;96713.17;108306;1278;22527;-78
2023/10/23 07:38:49;;;;;;;2.30;1.10;;;;;;;17.69;75.93;96717.83;108267;1277;23525;-78
2023/10/23 07:41:20;;;;;;;2.20;0.90;;;;;;;17.36;76.68;96721.48;108311;1274;22636;-79
2023/10/23 07:43:51;;;;;;;2.60;1.20;;;;;;;17.94;77.15;96712.79;108282;1278;22566;-79
2023/10/23 07:46:22;;;;;;;2.40;1.00;;;;;;;18.24;74.95;96711.39;108269;1278;22649;-79
2023/10/23 07:48:55;;;;;;;1.70;1.20;;;;;;;17.70;73.88;96717.86;108182;1270;22567;-78
2023/10/23 07:51:29;;;;;;;2.80;1.00;;;;;;;17.58;73.75;96726.18;108215;1275;22524;-79
2023/10/23 07:54:03;;;;;;;2.90;1.10;;;;;;;17.40;73.70;96733.70;108214;1278;22722;-78
2023/10/23 07:56:34;;;;;;;3.50;1.00;;;;;;;17.18;73.53;96734.84;108231;1278;22540;-79
2023/10/23 07:59:06;;;;;;;2.30;1.30;;;;;;;17.05;73.89;96732.05;108172;1277;32125;-79
2023/10/23 08:01:37;;;;;;;2.30;1.20;;;;;;;17.33;73.98;96727.89;108189;1275;22542;-79
2023/10/23 08:04:08;;;;;;;3.30;1.10;;;;;;;17.51;73.57;96734.70;108194;1271;23408;-79
2023/10/23 08:06:40;;;;;;;1.80;1.10;;;;;;;17.52;73.32;96737.21;108464;1278;22555;-79
2023/10/23 08:09:11;;;;;;;2.40;1.20;;;;;;;17.80;73.08;96731.31;108196;1277;22557;-79
2023/10/23 08:11:42;;;;;;;3.30;1.20;;;;;;;18.14;72.75;96729.61;108189;1271;22524;-78
2023/10/23 08:14:13;;;;;;;3.70;2.10;;;;;;;18.06;71.89;96729.69;108222;1278;25290;-79
2023/10/23 08:16:44;;;;;;;2.60;1.20;;;;;;;17.52;71.50;96735.34;108223;1278;22532;-79
2023/10/23 08:19:15;;;;;;;2.30;1.30;;;;;;;16.95;71.38;96739.96;108182;1277;22532;-79
2023/10/23 08:21:47;;;;;;;2.40;1.20;;;;;;;16.48;71.99;96738.73;108188;1277;22541;-79
2023/10/23 08:24:19;;;;;;;3.60;1.40;;;;;;;16.39;72.41;96738.05;108206;1277;22525;-79
2023/10/23 08:26:50;;;;;;;4.10;1.50;;;;;;;15.95;72.15;96743.05;108069;1277;149188;-78
2023/10/23 08:29:21;;;;;;;3.50;1.70;;;;;;;15.56;73.07;96747.83;108189;1277;25275;-78
2023/10/23 08:31:53;;;;;;;4.80;1.70;;;;;;;15.71;74.24;96744.71;108198;1277;24249;-79
2023/10/23 08:34:24;;;;;;;3.10;1.20;;;;;;;15.77;74.31;96740.57;108294;1277;24457;-79
2023/10/23 08:36:56;;;;;;;5.20;1.80;;;;;;;15.60;74.11;96736.35;108208;1278;22530;-79
2023/10/23 08:39:33;;;;;;;3.30;1.40;;;;;;;15.48;74.46;96736.59;108150;1277;25486;-79
2023/10/23 08:42:04;;;;;;;2.40;1.30;;;;;;;15.16;74.09;96738.81;108193;1277;22549;-79
2023/10/23 08:44:35;;;;;;;3.20;1.50;;;;;;;14.65;74.22;96741.71;108177;1267;22738;-79
2023/10/23 08:47:07;;;;;;;4.50;1.70;;;;;;;14.45;75.46;96740.20;108206;1278;22522;-79
2023/10/23 08:49:40;;;;;;;3.70;1.50;;;;;;;14.35;76.03;96736.09;108222;1275;24379;-79
2023/10/23 08:52:15;;;;;;;2.50;1.40;;;;;;;14.26;76.22;96738.77;108193;1278;23382;-79
2023/10/23 08:54:46;;;;;;;2.40;1.60;;;;;;;14.16;76.48;96737.96;108189;1277;22536;-79
2023/10/23 08:57:21;;;;;;;3.90;1.50;;;;;;;14.14;77.16;96742.15;108240;1275;22524;-79
2023/10/23 08:59:52;;;;;;;3.30;1.80;;;;;;;14.08;76.99;96741.85;108461;1278;23622;-79
2023/10/23 09:02:23;;;;;;;4.80;1.90;;;;;;;14.06;77.80;96749.94;108171;1278;22595;-79
2023/10/23 09:04:57;;;;;;;4.70;1.80;;;;;;;14.13;77.90;96760.73;108221;1278;23051;-79
2023/10/23 09:07:32;;;;;;;2.70;1.70;;;;;;;14.20;78.02;96762.25;108215;1278;22721;-79
2023/10/23 09:10:04;;;;;;;3.30;2.10;;;;;;;14.08;77.77;96769.62;108183;1277;25381;-79
2023/10/23 09:12:36;;;;;;;3.10;1.50;;;;;;;14.01;78.00;96775.36;108205;1278;22527;-79
2023/10/23 09:15:23;;;;;;;3.20;1.50;;;;;;;13.88;78.03;96775.02;108183;1278;23409;-79
2023/10/23 09:18:03;;;;;;;3.10;1.30;;;;;;;13.84;78.40;96781.50;108446;1277;25345;-79
2023/10/23 09:20:34;;;;;;;3.50;1.40;;;;;;;13.91;78.92;96778.95;108231;1267;22534;-79
2023/10/23 09:23:12;;;;;;;3.40;1.40;;;;;;;14.04;79.06;96785.01;108165;1278;22583;-79
2023/10/23 09:25:44;;;;;;;7.00;2.00;;;;;;;14.14;78.94;96784.55;108244;1274;24313;-79
2023/10/23 09:28:15;;;;;;;4.80;2.20;;;;;;;14.29;79.17;96782.40;108187;1278;22511;-79
2023/10/23 09:30:47;;;;;;;7.00;2.00;;;;;;;14.42;79.06;96777.77;108250;1278;25336;-79
2023/10/23 09:33:18;;;;;;;3.60;1.50;;;;;;;14.55;79.12;96780.66;108223;1274;22533;-79
2023/10/23 09:35:50;;;;;;;4.60;1.70;;;;;;;14.72;79.15;96779.91;108196;1278;22532;-79
2023/10/23 09:38:23;;;;;;;3.90;1.80;;;;;;;14.91;78.84;96773.20;108210;1278;22538;-79
2023/10/23 09:41:00;;;;;;;4.60;2.00;;;;;;;14.98;78.52;96760.35;108218;1278;25853;-79
2023/10/23 09:43:31;;;;;;;4.60;1.30;;;;;;;14.94;78.08;96761.23;108190;1278;22530;-79
2023/10/23 09:46:03;;;;;;;3.40;1.40;;;;;;;15.01;78.23;96756.41;108196;1278;22550;-79
2023/10/23 09:48:35;;;;;;;3.50;1.40;;;;;;;15.08;77.76;96754.66;108191;1278;22735;-79
2023/10/23 09:51:09;;;;;;;6.10;2.50;;;;;;;15.04;77.56;96754.89;108221;1271;22541;-79
2023/10/23 09:53:40;;;;;;;7.70;2.50;;;;;;;15.11;77.83;96755.93;108196;1278;22524;-79
2023/10/23 09:56:14;;;;;;;4.40;1.60;;;;;;;15.17;77.50;96754.70;108191;1278;22553;-79
2023/10/23 09:58:51;;;;;;;4.20;1.50;;;;;;;15.25;77.26;96755.95;108292;1277;25359;-79
2023/10/23 10:01:31;;;;;;;2.90;1.30;;;;;;;15.42;77.30;96754.05;108198;1278;22526;-79
2023/10/23 10:04:03;;;;;;;;;;;;;;;15.52;76.86;96752.84;108179;1278;22510;-79
2023/10/23 10:06:38;;;;;;;5.40;2.00;;;;;;;15.53;76.53;96751.33;108241;1278;22535;-79
2023/10/23 10:09:12;;;;;;;3.60;1.70;;;;;;;15.56;76.60;96755.46;108180;1278;22569;-79
2023/10/23 10:11:44;;;;;;;2.90;1.80;;;;;;;15.53;76.31;96752.87;108211;1272;22551;-79
2023/10/23 10:14:17;;;;;;;3.70;1.40;;;;;;;15.46;76.15;96749.92;108182;1277;22541;-79
2023/10/23 10:16:50;;;;;;;3.40;1.80;;;;;;;15.50;76.07;96744.45;108202;1278;22647;-79
2023/10/23 10:19:22;;;;;;;6.30;1.80;;;;;;;15.63;76.28;96742.64;108304;1277;22520;-79
2023/10/23 10:22:04;;;;;;;4.60;1.70;;;;;;;15.78;76.31;96741.17;108182;1278;24294;-79
2023/10/23 10:24:36;;;;;;;4.50;1.90;;;;;;;15.96;76.11;96735.08;108193;1277;22623;-78
2023/10/23 10:27:11;;;;;;;3.60;1.40;;;;;;;16.13;75.78;96729.30;108233;1277;22541;-79
2023/10/23 10:29:42;;;;;;;7.30;2.60;;;;;;;16.11;74.96;96725.30;108180;1277;24973;-79
2023/10/23 10:32:13;;;;;;;3.60;1.60;;;;;;;15.97;74.34;96721.52;108221;1277;26524;-78
2023/10/23 10:34:54;;;;;;;4.10;1.20;;;;;;;15.84;73.21;96722.04;108180;1277;22549;-78
2023/10/23 10:37:31;;;;;;;3.20;1.20;;;;;;;15.80;72.86;96723.39;108205;1278;23235;-79
2023/10/23 10:40:13;;;;;;;3.40;1.20;;;;;;;15.85;72.10;96723.70;108210;1260;22537;-78
2023/10/23 10:42:44;;;;;;;4.40;1.10;;;;;;;15.94;71.63;96720.86;108210;1277;22525;-78
2023/10/23 10:45:18;;;;;;;3.60;1.10;;;;;;;16.07;71.95;96720.23;108154;1270;26555;-78
2023/10/23 10:47:53;;;;;;;4.60;1.00;;;;;;;16.02;70.79;96713.86;108230;1277;22579;-78
2023/10/23 10:50:38;;;;;;;2.80;1.00;;;;;;;15.80;68.64;96713.17;108167;1277;22526;-79
2023/10/23 10:53:14;;;;;;;2.10;1.30;;;;;;;15.59;67.29;96712.59;108332;1277;22722;-79
2023/10/23 10:55:47;;;;;;;4.80;1.20;;;;;;;15.51;68.06;96714.28;108199;1277;24655;-78
2023/10/23 10:58:20;;;;;;;4.50;1.30;;;;;;;15.68;68.75;96710.13;108197;1278;22543;-79
2023/10/23 11:00:53;;;;;;;6.50;1.90;;;;;;;15.81;68.73;96711.21;108193;1277;22527;-79
2023/10/23 11:03:30;;;;;;;3.50;1.30;;;;;;;15.90;69.14;96708.51;108204;1277;25503;-79
2023/10/23 11:06:01;;;;;;;3.70;1.00;;;;;;;16.08;68.88;96708.19;108366;1277;22524;-79
2023/10/23 11:08:34;;;;;;;2.90;1.10;;;;;;;16.08;67.97;96706.84;108210;1274;22541;-79
2023/10/23 11:11:05;;;;;;;2.20;0.90;;;;;;;16.02;66.88;96706.14;108286;1277;22535;-79
2023/10/23 11:13:37;;;;;;;3.20;1.20;;;;;;;15.95;66.25;96706.67;108215;1277;22580;-79
2023/10/23 11:16:16;;;;;;;4.80;1.40;;;;;;;15.88;65.51;96704.49;108194;1277;22781;-79
2023/10/23 11:18:47;;;;;;;3.10;1.20;;;;;;;15.88;65.99;96701.23;108185;1278;22534;-78
2023/10/23 11:21:23;;;;;;;4.60;1.10;;;;;;;16.03;66.54;96696.71;108163;1277;22532;-78
2023/10/23 11:23:58;;;;;;;2.80;0.80;;;;;;;16.17;66.36;96697.45;108213;1277;22535;-78
2023/10/23 11:26:30;;;;;;;6.20;1.30;;;;;;;16.25;66.45;96693.09;108206;1277;22552;-79
2023/10/23 11:29:05;;;;;;;3.40;0.80;;;;;;;16.36;66.03;96695.19;108194;1277;25498;-79
2023/10/23 11:31:39;;;;;;;4.00;1.20;;;;;;;16.27;65.17;96689.27;108198;1278;22556;-79
2023/10/23 11:34:13;;;;;;;4.40;1.20;;;;;;;16.28;65.06;96688.42;108208;1277;22549;-79
2023/10/23 11:36:49;;;;;;;4.20;1.00;;;;;;;16.42;65.23;96686.38;108203;1278;25381;-79
2023/10/23 11:39:22;;;;;;;6.00;1.00;;;;;;;16.49;64.21;96690.77;108177;1275;23941;-79
2023/10/23 11:42:00;;;;;;;2.10;0.90;;;;;;;16.44;63.56;96690.69;108181;1278;22567;-79
2023/10/23 11:44:34;;;;;;;5.10;1.10;;;;;;;16.49;63.88;96688.30;108211;1278;22538;-79
2023/10/23 11:47:07;;;;;;;5.50;1.00;;;;;;;16.68;64.18;96687.00;108164;1265;22534;-79
2023/10/23 11:49:48;;;;;;;2.50;1.00;;;;;;;16.80;63.74;96691.08;108201;1270;24212;-79